HorshamWeather.Com Historical Data
 
Daily Summary for October 02, 2014 Units:  English    Metric   Both
« Previous Day
Next Day »
Daily Weekly Monthly Yearly Custom
  Current: High: Low: Average:
Temperature: 64.8 °F 65.0 °F 60.5 °F 61.7 °F
Dew Point: 57.8 °F 58.5 °F 56.9 °F 57.6 °F
Humidity: 78% 89% 77% 87%
Wind Speed: 1.0mph 7.0mph 0.0mph 1.6mph
Wind Gust: 1.0mph 8.0mph - -
WindSE - - East
Pressure: 30.15 in 30.16 in 30.08 in -
Precipitation: 0.00 in      
Historical Graphs
 
 
Tabular Data for October 02, 2014
Time Temperature Dew Point Pressure Wind Wind Speed Wind Gust Humidity Rainfall Rate (Hourly)
00:02 61.9 °F 57.7 °F 30.09 in Calm   1.0 mph 86% 0.00 in
00:07 61.7 °F 57.5 °F 30.09 in NNE 1.0 mph 1.0 mph 86% 0.00 in
00:12 61.5 °F 57.3 °F 30.08 in Calm   2.0 mph 86% 0.00 in
00:17 61.4 °F 57.5 °F 30.08 in NNE 1.0 mph 2.0 mph 87% 0.00 in
00:22 61.3 °F 57.4 °F 30.09 in North 1.0 mph 2.0 mph 87% 0.00 in
00:27 61.2 °F 57.3 °F 30.08 in Calm   2.0 mph 87% 0.00 in
00:32 61.1 °F 57.2 °F 30.08 in Calm   1.0 mph 87% 0.00 in
00:37 61.0 °F 57.4 °F 30.08 in NNE 2.0 mph 3.0 mph 88% 0.00 in
00:42 60.9 °F 57.3 °F 30.08 in Calm   1.0 mph 88% 0.00 in
00:47 60.8 °F 57.2 °F 30.09 in Calm   1.0 mph 88% 0.00 in
00:52 60.8 °F 57.5 °F 30.08 in NNE 1.0 mph 1.0 mph 89% 0.00 in
00:57 60.9 °F 57.6 °F 30.09 in NNE 1.0 mph 2.0 mph 89% 0.00 in
01:02 61.0 °F 57.7 °F 30.09 in Calm   1.0 mph 89% 0.00 in
01:07 61.2 °F 57.9 °F 30.09 in North 2.0 mph 2.0 mph 89% 0.00 in
01:12 61.3 °F 58.0 °F 30.09 in Calm   1.0 mph 89% 0.00 in
01:17 61.5 °F 58.2 °F 30.09 in NE 1.0 mph 2.0 mph 89% 0.00 in
01:21 61.6 °F 58.3 °F 30.09 in NNE 1.0 mph 3.0 mph 89% 0.00 in
01:26 61.7 °F 58.1 °F 30.09 in NNE 2.0 mph 2.0 mph 88% 0.00 in
01:31 61.8 °F 58.2 °F 30.09 in Calm   1.0 mph 88% 0.00 in
01:36 62.0 °F 58.1 °F 30.09 in Calm   1.0 mph 87% 0.00 in
01:41 62.2 °F 58.3 °F 30.09 in NE 1.0 mph 1.0 mph 87% 0.00 in
01:46 62.3 °F 58.4 °F 30.10 in ENE 1.0 mph 2.0 mph 87% 0.00 in
01:51 62.4 °F 58.2 °F 30.10 in NE 1.0 mph 1.0 mph 86% 0.00 in
01:56 62.5 °F 58.3 °F 30.09 in NE 1.0 mph 1.0 mph 86% 0.00 in
02:01 62.4 °F 58.2 °F 30.10 in Calm   1.0 mph 86% 0.00 in
02:06 62.5 °F 58.3 °F 30.09 in Calm   1.0 mph 86% 0.00 in
02:11 62.5 °F 58.3 °F 30.09 in Calm   1.0 mph 86% 0.00 in
02:16 62.5 °F 58.3 °F 30.09 in East 1.0 mph 3.0 mph 86% 0.00 in
02:21 62.5 °F 58.3 °F 30.09 in ENE 1.0 mph 2.0 mph 86% 0.00 in
02:26 62.4 °F 58.2 °F 30.09 in NNE 1.0 mph 2.0 mph 86% 0.00 in
02:31 62.4 °F 58.2 °F 30.10 in North 3.0 mph 4.0 mph 86% 0.00 in
02:36 62.4 °F 58.2 °F 30.09 in NNE 1.0 mph 2.0 mph 86% 0.00 in
02:41 62.3 °F 58.1 °F 30.09 in Calm     86% 0.00 in
02:46 62.3 °F 58.1 °F 30.09 in NNE 2.0 mph 2.0 mph 86% 0.00 in
02:51 62.2 °F 58.0 °F 30.09 in NE 1.0 mph 4.0 mph 86% 0.00 in
02:56 62.0 °F 57.8 °F 30.09 in East 1.0 mph 2.0 mph 86% 0.00 in
03:01 61.9 °F 57.7 °F 30.09 in North 2.0 mph 4.0 mph 86% 0.00 in
03:06 61.8 °F 57.6 °F 30.09 in Calm   1.0 mph 86% 0.00 in
03:11 61.7 °F 57.8 °F 30.09 in NE 1.0 mph 1.0 mph 87% 0.00 in
03:16 61.7 °F 57.8 °F 30.09 in NNW 1.0 mph 1.0 mph 87% 0.00 in
03:21 61.7 °F 57.8 °F 30.09 in Calm   1.0 mph 87% 0.00 in
03:26 61.7 °F 57.8 °F 30.09 in Calm   3.0 mph 87% 0.00 in
03:30 61.6 °F 57.7 °F 30.09 in NNE 2.0 mph 2.0 mph 87% 0.00 in
03:35 61.5 °F 57.6 °F 30.09 in NNW 1.0 mph 1.0 mph 87% 0.00 in
03:40 61.4 °F 57.5 °F 30.09 in NE 1.0 mph 1.0 mph 87% 0.00 in
03:45 61.4 °F 57.8 °F 30.09 in Calm     88% 0.00 in
03:50 61.3 °F 57.7 °F 30.10 in NNE 1.0 mph 1.0 mph 88% 0.00 in
03:55 61.3 °F 57.7 °F 30.09 in NNE 1.0 mph 1.0 mph 88% 0.00 in
04:00 61.4 °F 57.8 °F 30.09 in Calm     88% 0.00 in
04:05 61.3 °F 57.7 °F 30.09 in Calm     88% 0.00 in
04:10 61.4 °F 57.8 °F 30.09 in Calm   1.0 mph 88% 0.00 in
04:15 61.3 °F 57.7 °F 30.10 in ENE 1.0 mph 1.0 mph 88% 0.00 in
04:20 61.3 °F 57.7 °F 30.10 in NE 3.0 mph 3.0 mph 88% 0.00 in
04:25 61.2 °F 57.6 °F 30.10 in North 2.0 mph 2.0 mph 88% 0.00 in
04:30 61.2 °F 57.6 °F 30.10 in NNE 4.0 mph 4.0 mph 88% 0.00 in
04:35 61.1 °F 57.5 °F 30.10 in Calm   1.0 mph 88% 0.00 in
04:40 61.1 °F 57.5 °F 30.10 in Calm     88% 0.00 in
04:45 61.1 °F 57.5 °F 30.11 in Calm     88% 0.00 in
04:50 61.1 °F 57.5 °F 30.11 in NE 1.0 mph 2.0 mph 88% 0.00 in
04:55 61.1 °F 57.5 °F 30.11 in Calm     88% 0.00 in
05:00 61.1 °F 57.5 °F 30.11 in NE 1.0 mph 2.0 mph 88% 0.00 in
05:05 61.1 °F 57.5 °F 30.11 in NE 1.0 mph 1.0 mph 88% 0.00 in
05:10 61.1 °F 57.5 °F 30.11 in Calm   1.0 mph 88% 0.00 in
05:15 61.1 °F 57.5 °F 30.11 in NE 3.0 mph 3.0 mph 88% 0.00 in
05:20 61.1 °F 57.5 °F 30.11 in NNE 2.0 mph 2.0 mph 88% 0.00 in
05:25 61.0 °F 57.4 °F 30.11 in North 2.0 mph 2.0 mph 88% 0.00 in
05:30 61.0 °F 57.4 °F 30.11 in North 2.0 mph 2.0 mph 88% 0.00 in
05:35 61.0 °F 57.4 °F 30.11 in North 1.0 mph 1.0 mph 88% 0.00 in
05:40 60.9 °F 57.3 °F 30.11 in Calm   1.0 mph 88% 0.00 in
05:45 60.9 °F 57.3 °F 30.11 in SE 1.0 mph 2.0 mph 88% 0.00 in
05:50 60.8 °F 57.2 °F 30.11 in NE 2.0 mph 2.0 mph 88% 0.00 in
05:55 60.8 °F 57.2 °F 30.11 in SE 1.0 mph 1.0 mph 88% 0.00 in
06:00 60.7 °F 57.4 °F 30.12 in NNE 1.0 mph 1.0 mph 89% 0.00 in
06:05 60.7 °F 57.1 °F 30.11 in SE 1.0 mph 3.0 mph 88% 0.00 in
06:10 60.7 °F 57.1 °F 30.11 in NE 1.0 mph 3.0 mph 88% 0.00 in
06:15 60.7 °F 57.1 °F 30.11 in SE 1.0 mph 1.0 mph 88% 0.00 in
06:20 60.6 °F 57.0 °F 30.11 in Calm   1.0 mph 88% 0.00 in
06:25 60.5 °F 56.9 °F 30.11 in SE 1.0 mph 2.0 mph 88% 0.00 in
06:30 60.5 °F 57.2 °F 30.12 in North 2.0 mph 3.0 mph 89% 0.00 in
06:35 60.5 °F 57.2 °F 30.12 in NNE 1.0 mph 1.0 mph 89% 0.00 in
06:40 60.5 °F 57.2 °F 30.12 in Calm     89% 0.00 in
06:45 60.5 °F 57.2 °F 30.12 in Calm   1.0 mph 89% 0.00 in
06:50 60.5 °F 57.2 °F 30.12 in North 1.0 mph 1.0 mph 89% 0.00 in
06:55 60.6 °F 57.3 °F 30.12 in NW 1.0 mph 1.0 mph 89% 0.00 in
07:00 60.5 °F 57.2 °F 30.12 in NNE 1.0 mph 3.0 mph 89% 0.00 in
07:05 60.5 °F 57.2 °F 30.12 in Calm     89% 0.00 in
07:10 60.5 °F 57.2 °F 30.12 in Calm     89% 0.00 in
07:15 60.5 °F 57.2 °F 30.13 in NNE 1.0 mph 1.0 mph 89% 0.00 in
07:20 60.5 °F 57.2 °F 30.13 in NNW 1.0 mph 1.0 mph 89% 0.00 in
07:25 60.6 °F 57.3 °F 30.12 in Calm   1.0 mph 89% 0.00 in
07:26 60.6 °F 57.3 °F 30.12 in Calm   1.0 mph 89% 0.00 in
07:31 60.7 °F 57.4 °F 30.13 in East 1.0 mph 2.0 mph 89% 0.00 in
07:36 60.8 °F 57.2 °F 30.13 in Calm   1.0 mph 88% 0.00 in
07:41 60.9 °F 57.3 °F 30.13 in NNE 1.0 mph 3.0 mph 88% 0.00 in
07:46 61.0 °F 57.4 °F 30.13 in NNE 1.0 mph 1.0 mph 88% 0.00 in
07:51 61.0 °F 57.4 °F 30.13 in Calm   1.0 mph 88% 0.00 in
07:56 61.0 °F 57.4 °F 30.13 in NNE 3.0 mph 3.0 mph 88% 0.00 in
08:01 61.1 °F 57.8 °F 30.14 in Calm   1.0 mph 89% 0.00 in
08:06 61.5 °F 57.9 °F 30.14 in NNE 3.0 mph 3.0 mph 88% 0.00 in
08:08 61.6 °F 58.0 °F 30.14 in NNE 1.0 mph 3.0 mph 88% 0.00 in
08:13 61.9 °F 58.0 °F 30.14 in North 1.0 mph 3.0 mph 87% 0.00 in
08:18 62.0 °F 58.1 °F 30.14 in NNE 3.0 mph 3.0 mph 87% 0.00 in
08:23 61.9 °F 58.0 °F 30.14 in NE 1.0 mph 4.0 mph 87% 0.00 in
08:28 61.9 °F 58.0 °F 30.14 in NNE 3.0 mph 3.0 mph 87% 0.00 in
08:33 61.9 °F 57.7 °F 30.14 in NNE 1.0 mph 5.0 mph 86% 0.00 in
08:38 62.0 °F 57.8 °F 30.15 in NNE 1.0 mph 2.0 mph 86% 0.00 in
08:43 62.0 °F 57.8 °F 30.15 in NNE 2.0 mph 3.0 mph 86% 0.00 in
08:48 62.0 °F 57.5 °F 30.15 in NNE 4.0 mph 4.0 mph 85% 0.00 in
08:53 61.9 °F 57.3 °F 30.15 in NE 1.0 mph 8.0 mph 85% 0.00 in
08:58 62.0 °F 57.8 °F 30.15 in Calm   3.0 mph 86% 0.00 in
09:03 62.3 °F 57.4 °F 30.16 in WNW 1.0 mph 5.0 mph 84% 0.00 in
09:08 62.5 °F 57.3 °F 30.16 in Calm   2.0 mph 83% 0.00 in
09:13 62.8 °F 57.6 °F 30.16 in NE 3.0 mph 5.0 mph 83% 0.00 in
09:18 63.0 °F 57.4 °F 30.16 in NNE 7.0 mph 7.0 mph 82% 0.00 in
09:23 63.2 °F 57.6 °F 30.16 in North 1.0 mph 3.0 mph 82% 0.00 in
09:25 63.3 °F 57.7 °F 30.16 in NNE 5.0 mph 5.0 mph 82% 0.00 in
09:30 63.5 °F 57.2 °F 30.16 in SSE 1.0 mph 1.0 mph 80% 0.00 in
09:35 63.6 °F 57.7 °F 30.15 in Calm   1.0 mph 81% 0.00 in
09:40 63.8 °F 57.9 °F 30.15 in Calm   2.0 mph 81% 0.00 in
09:45 64.2 °F 57.9 °F 30.15 in ENE 1.0 mph 2.0 mph 80% 0.00 in
09:50 64.5 °F 58.5 °F 30.15 in NNW 3.0 mph 7.0 mph 81% 0.00 in
09:55 64.9 °F 58.2 °F 30.15 in North 4.0 mph 4.0 mph 79% 0.00 in
10:00 65.0 °F 58.3 °F 30.15 in ENE 1.0 mph 4.0 mph 79% 0.00 in
10:05 64.7 °F 57.7 °F 30.15 in ESE 1.0 mph 1.0 mph 78% 0.00 in
10:10 64.7 °F 57.3 °F 30.15 in ESE 1.0 mph 1.0 mph 77% 0.00 in
10:15 64.8 °F 57.8 °F 30.15 in SSE 2.0 mph 3.0 mph 78% 0.00 in
10:20 64.6 °F 57.2 °F 30.15 in NW 1.0 mph 2.0 mph 77% 0.00 in
10:25 64.8 °F 57.8 °F 30.15 in SE 1.0 mph 1.0 mph 78% 0.00 in
HorshamWeather.Com
Compliments of Weather Underground